Tropical Cyclones
[Index]
Main Index Home Page Stock Weather Photos Extreme Storms Discussion Storm News and Storm Chasing Reports Tropical Cyclones / Hurricanes / Typhoons Weather Data and Links Wild Fires / Bushfires Weather Observation Techniques Weather Picture Catalogue Tornado Pictures and Reports Stock Video Footage and DVDs for sale
Season 2011-2012 Tropical Cyclone CHANDA Track Map
Season 2011-2012 Summaries (Operational Data): [AU] [SIO] [SPAC] [SH]
<<- Previous TC | 2011-2012 Season | Next TC ->>

click for intensity scale information  Lat/long Grid: Show Hide

 Date Labels: Show Hide

Operational Tropical Cyclone Data : JTWC Advisories

Name: CHANDA
Number: 1205

05 Jan 2012 18:00 UTC to 15 Jan 2012 06:00 UTC

    date/time    lat    long     hPa   cat  kts
2012-01-05 18   15.5    41.1    1007         20          
2012-01-06 00   15.8    41.1    1004         25          
2012-01-06 06   16.1    41.1    1004         25          
2012-01-06 12   16.4    40.9    1004         25          
2012-01-06 18   16.8    40.9    1004         25          
2012-01-07 00   17.2    40.9    1004         25          
2012-01-07 06   17.5    40.9    1004         25          
2012-01-07 12   17.9    41.1    1004         25          
2012-01-07 18   18.4    41.3     996    1    35          
2012-01-08 00   18.9    41.9     996    1    35          
2012-01-08 06   19.3    42.7     993    1    40          
2012-01-08 12   19.9    43.3     993    1    40          
2012-01-08 18   20.3    43.8     996    1    35          
2012-01-09 00   20.7    44.2     996    1    35          
2012-01-09 06   21.4    44.4     996    1    35          
2012-01-09 12   21.8    44.2    1004         25          
2012-01-09 18   22.1    43.9    1004         25          
2012-01-10 00   22.2    43.9    1004         25          
2012-01-10 06   22.2    44.2    1004         25          
2012-01-10 12   23.0    46.3    1004         25          
2012-01-10 18   23.8    49.4    1004         25          
2012-01-11 00   24.7    51.3    1004         25          
2012-01-11 06   24.9    52.3    1004         25          
2012-01-11 12   25.0    54.7    1003                     
2012-01-11 18   25.1    54.9    1003                     
2012-01-12 00   25.5    54.9    1001                     
2012-01-12 06   25.4    53.6    1003                     
2012-01-12 12   25.1    52.7    1002                     
2012-01-12 18   25.1    52.6    1006                     
2012-01-13 00   24.8    51.2    1005                     
2012-01-13 06   24.9    50.4    1007                     
2012-01-13 12   24.4    49.9    1006                     
2012-01-13 18   23.0    47.9    1007                     
2012-01-14 00   23.7    47.7    1007                     
2012-01-14 06   24.8    45.1    1008                     
2012-01-14 12   25.1    44.9    1007                     
2012-01-14 18   24.6    42.7    1008                     
2012-01-15 00   25.1    41.9    1007                     
2012-01-15 06   24.5    40.4    1009                     
Winds are 10-min average.

Tropical cyclone tracks developed by Michael Bath using operational warnings and advisories and Google Maps.


[Australian Severe Weather index] [Copyright Notice] [Email Contacts] [Search This Site] [Privacy Policy]
Document: tropical_cyclone_chanda.htm Updated: 2 May 2017